This is the latest recevied weather packets stored in our database for station/object DH8TOM-4. If no packets are shown the sender has not sent any weather packets the latest 10 day(s).
| Time | Temp. | Humidity | Pressure | Rain* | Wind** | Luminosity | Snow |
|---|---|---|---|---|---|---|---|
| 1787818552 | 25.56° C | 66% | 1016.4 hPa | - | - | - | - |
| 1787818252 | 25.56° C | 66% | 1016.5 hPa | - | - | - | - |
| 1787817950 | 25.56° C | 68% | 1016.6 hPa | - | - | - | - |
| 1787817649 | 25.56° C | 68% | 1016.6 hPa | - | - | - | - |
| 1787817349 | 25.56° C | 68% | 1016.6 hPa | - | - | - | - |
| 1787817047 | 23.89° C | 71% | 1016.6 hPa | - | - | - | - |
| 1787816746 | 23.89° C | 71% | 1016.6 hPa | - | - | - | - |
| 1787816446 | 23.33° C | 70% | 1016.5 hPa | - | - | - | - |
| 1787816144 | 23.33° C | 70% | 1016.5 hPa | - | - | - | - |
| 1787815843 | 23.33° C | 72% | 1016.7 hPa | - | - | - | - |
| 1787815543 | 23.33° C | 75% | 1016.8 hPa | - | - | - | - |
| 1787815241 | 23.33° C | 75% | 1016.8 hPa | - | - | - | - |
| 1787814941 | 23.33° C | 75% | 1016.8 hPa | - | - | - | - |
| 1787814639 | 21.67° C | 78% | 1016.7 hPa | - | - | - | - |
| 1787814338 | 20.56° C | 83% | 1016.7 hPa | - | - | - | - |
| 1787814037 | 20.56° C | 83% | 1016.7 hPa | - | - | - | - |
| 1787813737 | 20.56° C | 83% | 1016.7 hPa | - | - | - | - |
| 1787813435 | 19.44° C | 86% | 1016.7 hPa | - | - | - | - |
| 1787813134 | 19.44° C | 86% | 1016.7 hPa | - | - | - | - |
| 1787812834 | 18.33° C | 89% | 1016.7 hPa | - | - | - | - |
| 1787812532 | 18.33° C | 89% | 1016.7 hPa | - | - | - | - |
| 1787812231 | 17.22° C | 93% | 1016.8 hPa | - | - | - | - |
| 1787811930 | 17.22° C | 93% | 1016.8 hPa | - | - | - | - |
| 1787811629 | 15.56° C | 95% | 1016.5 hPa | - | - | - | - |
| 1787811328 | 15.56° C | 95% | 1016.5 hPa | - | - | - | - |
* Rain since midnight (hover to see other rain measurements)
** Current wind speed in m/s (hover to see current wind gust speed)